Aérodrome :
LOGIN :

S'inscrire | Disclaimer

   EN    FR    IT 

 










Légende :    VFR   VFR Marginal   IFR   IFR Intensif   IFR Très Intensif
Visi : 
Plafond : 
>= 8 km
>= 3000ft
5 à 8 km
1000 à 3000 ft
1500m à 5 km
500 à 1000 ft
800 à 1500m
200 à 500 ft
< 800m
< 200 ft
Symboles :   Orages  Brouillard  Fortes neiges  Fortes précipitations  Vent > 20 kt
SIGMETs :   Divers  Orages  Givrage  Turbulence  Onde Orograph.  Cendres Volcan.






- Altitude de l'aérodrome : 144 ft
- Code IATA : PGF


LFMP - Perpignan

DERNIER METAR :
  • 230930Z AUTO 31012KT 280V340 9999 FEW040 19/09 Q1019 NOSIG

METARs EXPIRÉS :
  • 230900Z AUTO 32011KT 290V350 CAVOK 19/10 Q1019 NOSIG
  • 230830Z AUTO 31010KT 270V350 9999 FEW034 18/10 Q1019 NOSIG
  • 230800Z AUTO 32010KT 280V010 9999 FEW032 SCT078 18/10 Q1019
  • 230730Z AUTO 30016KT 9999 FEW031 BKN076 17/10 Q1019 NOSIG
  • 230700Z AUTO 31007KT 280V350 9999 FEW032 BKN076 17/10 Q1019 NOSIG
  • 230630Z AUTO 29006KT 240V330 9999 BKN078 16/10 Q1019 NOSIG
  • 230600Z AUTO VRB02KT 9999 SCT080 15/10 Q1019 NOSIG
  • 230530Z AUTO 28006KT 240V330 9999 FEW080 15/10 Q1018 NOSIG
  • 230500Z AUTO 30010KT 9999 FEW076 BKN180 15/09 Q1018 NOSIG

TAF TAF LFMP
Valide du 23 à 09h jusqu'au 24 à 09h UTC


230800Z 2309/2409 30008KT 9999 FEW035
TEMPO 2312/2318 SCT050TCU BKN050
PROB30
TEMPO 2312/2318 SHRA FEW050CB BKN050 BKN080
ATIS : +33 4 68 63 75 12



MET'MAP, la Météo Aéronautique d'un coup d'oeil ! - Copyright ORBIFLY Décembre 2007 - Disclaimer

ORBIFLY MET'MAP TEAM :

Programmation & Développement : Alexandra Zaïnal
Sur une idée originale de : Baudouin d'Aumeries
Soutien technique & logistique : Manuel Goepfert
Assistance : Marc-Olivier Méhu




SOURCES & CREDITS :

   NOAA